createdAt,value
2019-05-19T00:02:33.487Z,60.10
2019-05-19T00:07:38.968Z,62.60
2019-05-19T00:12:44.034Z,61.70
2019-05-19T00:17:49.440Z,63.13
2019-05-19T00:22:58.709Z,63.77
2019-05-19T00:28:03.845Z,61.97
2019-05-19T00:33:08.891Z,63.73
2019-05-19T00:38:14.032Z,63.70
2019-05-19T00:43:19.103Z,66.03
2019-05-19T00:48:24.528Z,65.30
2019-05-19T00:53:29.618Z,72.53
2019-05-19T00:58:34.938Z,75.57
2019-05-19T01:03:40.230Z,64.12
2019-05-19T01:08:50.398Z,54.35
2019-05-19T01:13:55.828Z,58.33
2019-05-19T01:19:01.024Z,59.27
2019-05-19T01:24:06.075Z,59.93
2019-05-19T01:29:11.159Z,60.63
2019-05-19T01:34:16.264Z,63.17
2019-05-19T01:39:21.304Z,63.15
2019-05-19T01:44:26.366Z,62.83
2019-05-19T01:49:31.420Z,63.38
2019-05-19T01:54:36.405Z,78.12
2019-05-19T01:59:41.426Z,59.00
2019-05-19T02:04:46.718Z,59.15
2019-05-19T02:09:51.834Z,63.30
2019-05-19T02:14:57.284Z,59.38
2019-05-19T02:20:02.437Z,59.33
2019-05-19T02:25:07.694Z,55.53
2019-05-19T02:30:14.846Z,54.85
2019-05-19T02:35:21.024Z,55.48
2019-05-19T02:40:28.435Z,56.53
2019-05-19T02:45:35.226Z,62.17
2019-05-19T02:50:52.419Z,66.07
2019-05-19T02:55:50.236Z,65.20
2019-05-19T03:00:57.004Z,64.82
2019-05-19T03:06:05.892Z,66.37
2019-05-19T03:11:12.062Z,62.80
2019-05-19T03:16:17.113Z,74.25
2019-05-19T03:21:23.255Z,62.45
2019-05-19T03:26:28.298Z,56.92
2019-05-19T03:31:40.656Z,57.40
2019-05-19T03:36:45.702Z,59.40
2019-05-19T03:41:52.393Z,69.50
2019-05-19T03:46:57.454Z,71.97
2019-05-19T03:52:02.470Z,58.63
2019-05-19T03:57:07.509Z,57.73
2019-05-19T04:02:12.571Z,62.60
2019-05-19T04:07:19.216Z,59.98
2019-05-19T04:12:24.293Z,70.12
2019-05-19T04:17:29.625Z,64.97
2019-05-19T04:22:34.724Z,67.20
2019-05-19T04:27:42.906Z,73.10
2019-05-19T04:32:49.612Z,76.33
2019-05-19T04:37:54.661Z,83.27
2019-05-19T04:43:00.073Z,76.95
2019-05-19T04:48:09.195Z,76.82
2019-05-19T04:53:12.267Z,74.30
2019-05-19T04:58:18.673Z,68.00
2019-05-19T05:03:24.393Z,69.15
2019-05-19T05:08:36.047Z,60.67
2019-05-19T05:13:42.633Z,64.25
2019-05-19T05:18:48.078Z,61.53
2019-05-19T05:23:56.519Z,61.97
2019-05-19T05:29:02.298Z,57.60
2019-05-19T05:34:08.796Z,56.33
2019-05-19T05:39:16.652Z,55.45
2019-05-19T05:44:21.786Z,58.68
2019-05-19T05:49:27.360Z,58.17
2019-05-19T05:54:32.378Z,56.40
2019-05-19T05:59:37.404Z,55.70
2019-05-19T06:04:42.474Z,54.60
2019-05-19T06:09:51.167Z,50.92
2019-05-19T06:14:56.274Z,48.00
2019-05-19T06:20:01.907Z,56.15
2019-05-19T06:25:07.633Z,48.35
2019-05-19T06:30:12.679Z,50.28
2019-05-19T06:35:18.964Z,48.13
2019-05-19T06:40:25.020Z,48.17
2019-05-19T06:45:33.015Z,48.80
2019-05-19T06:50:40.791Z,58.83
2019-05-19T06:55:46.236Z,57.53
2019-05-19T07:00:51.365Z,57.60
2019-05-19T07:05:56.706Z,57.48
2019-05-19T07:11:01.771Z,68.72
2019-05-19T07:16:06.868Z,44.37
2019-05-19T07:21:11.952Z,47.88
2019-05-19T07:26:18.507Z,46.58
2019-05-19T07:31:23.675Z,46.53
2019-05-19T07:36:28.769Z,41.40
2019-05-19T07:41:34.276Z,41.57
2019-05-19T07:46:41.407Z,39.80
2019-05-19T07:51:46.495Z,41.28
2019-05-19T07:56:51.664Z,41.83
2019-05-19T08:01:56.863Z,41.13
2019-05-19T08:07:02.430Z,46.00
2019-05-19T08:12:25.758Z,39.60
2019-05-19T08:17:30.965Z,41.73
2019-05-19T08:22:37.210Z,40.77
2019-05-19T08:27:42.710Z,42.43
2019-05-19T08:32:47.864Z,41.13
2019-05-19T08:37:52.862Z,45.73
2019-05-19T08:42:57.922Z,52.88
2019-05-19T08:48:03.046Z,50.60
2019-05-19T08:53:08.633Z,49.33
2019-05-19T08:58:16.222Z,48.63
2019-05-19T09:03:22.634Z,51.70
2019-05-19T09:08:28.031Z,43.83
2019-05-19T09:13:35.769Z,44.60
2019-05-19T09:18:42.862Z,45.65
2019-05-19T09:23:48.798Z,49.27
2019-05-19T09:29:02.711Z,46.07
2019-05-19T09:34:10.375Z,39.67
2019-05-19T09:39:15.937Z,37.90
2019-05-19T09:44:26.961Z,39.65
2019-05-19T09:49:39.611Z,39.98
2019-05-19T09:54:46.195Z,41.00
2019-05-19T09:59:51.612Z,39.25
2019-05-19T10:04:57.755Z,37.60
2019-05-19T10:10:47.195Z,39.55
2019-05-19T10:15:53.247Z,37.10
2019-05-19T10:20:58.391Z,39.08
2019-05-19T10:26:04.080Z,37.28
2019-05-19T10:31:10.864Z,40.20
2019-05-19T10:36:16.001Z,36.65
2019-05-19T10:41:23.016Z,38.83
2019-05-19T10:46:28.515Z,42.10
2019-05-19T10:51:34.268Z,36.17
2019-05-19T10:56:39.298Z,38.23
2019-05-19T11:01:44.457Z,38.38
2019-05-19T11:06:51.184Z,45.43
2019-05-19T11:11:58.923Z,43.02
2019-05-19T11:17:04.322Z,42.45
2019-05-19T11:22:09.409Z,40.93
2019-05-19T11:27:15.090Z,38.05
2019-05-19T11:32:20.140Z,39.40
2019-05-19T11:37:25.267Z,31.52
2019-05-19T11:42:30.422Z,36.45
2019-05-19T11:47:35.783Z,32.17
2019-05-19T11:52:40.916Z,33.55
2019-05-19T11:57:46.080Z,35.20
2019-05-19T12:02:51.370Z,30.50
2019-05-19T12:07:56.693Z,29.75
2019-05-19T12:13:01.796Z,36.83
2019-05-19T12:18:06.941Z,31.17
2019-05-19T12:23:13.517Z,31.00
2019-05-19T12:28:18.575Z,38.83
2019-05-19T12:33:25.196Z,30.75
2019-05-19T12:38:30.270Z,33.27
2019-05-19T12:43:36.316Z,32.07
2019-05-19T12:48:41.517Z,34.05
2019-05-19T12:53:47.450Z,32.90
2019-05-19T12:58:52.730Z,33.50
2019-05-19T13:03:58.320Z,32.80
2019-05-19T13:09:05.111Z,33.65
2019-05-19T13:14:10.673Z,37.83
2019-05-19T13:19:15.687Z,37.80
2019-05-19T13:24:21.054Z,33.45
2019-05-19T13:29:26.236Z,36.13
2019-05-19T13:34:31.308Z,32.13
2019-05-19T13:39:37.369Z,31.37
2019-05-19T13:44:42.514Z,35.07
2019-05-19T13:49:48.432Z,33.75
2019-05-19T13:54:53.542Z,41.55
2019-05-19T14:00:11.876Z,38.20
2019-05-19T14:05:17.092Z,34.20
2019-05-19T14:10:22.210Z,34.30
2019-05-19T14:15:27.337Z,34.20
2019-05-19T14:20:32.419Z,34.70
2019-05-19T14:25:37.783Z,32.20
2019-05-19T14:30:43.273Z,35.60
2019-05-19T14:35:48.700Z,35.40
2019-05-19T14:40:53.823Z,30.02
2019-05-19T14:45:58.881Z,32.23
2019-05-19T14:51:05.207Z,38.70
2019-05-19T14:56:10.809Z,31.17
2019-05-19T15:01:16.745Z,32.57
2019-05-19T15:06:56.705Z,31.00
2019-05-19T15:12:15.837Z,36.28
2019-05-19T15:17:20.929Z,38.70
2019-05-19T15:22:25.971Z,34.55
2019-05-19T15:27:35.913Z,29.87
2019-05-19T15:32:42.265Z,36.50
2019-05-19T15:37:48.425Z,37.20
2019-05-19T15:48:48.319Z,32.77
2019-05-19T15:59:17.001Z,34.15
2019-05-19T16:04:34.469Z,33.25
2019-05-19T16:15:48.240Z,31.57
2019-05-19T16:20:57.092Z,34.83
2019-05-19T16:26:17.835Z,29.65
2019-05-19T16:31:31.369Z,36.17
2019-05-19T16:36:36.914Z,38.80
2019-05-19T16:41:42.683Z,33.50
2019-05-19T16:46:53.567Z,38.70
2019-05-19T16:51:59.727Z,39.30
2019-05-19T16:57:06.056Z,30.97
2019-05-19T17:02:11.234Z,31.85
2019-05-19T17:07:20.232Z,28.57
2019-05-19T17:12:25.972Z,28.20
2019-05-19T17:17:31.150Z,31.33
2019-05-19T17:22:36.437Z,43.52
2019-05-19T17:28:21.763Z,39.37
2019-05-19T17:33:27.516Z,38.63
2019-05-19T17:38:34.357Z,38.28
2019-05-19T17:43:42.138Z,33.48
2019-05-19T17:49:12.754Z,34.67
2019-05-19T17:54:29.536Z,34.67
2019-05-19T17:59:38.033Z,29.40
2019-05-19T18:04:45.526Z,31.03
2019-05-19T18:09:55.221Z,34.43
2019-05-19T18:15:03.295Z,34.33
2019-05-19T18:20:29.425Z,35.75
2019-05-19T18:26:00.727Z,32.97
2019-05-19T18:31:31.014Z,30.57
2019-05-19T18:36:35.784Z,33.25
2019-05-19T18:41:51.829Z,31.43
2019-05-19T18:47:19.391Z,33.23
2019-05-19T18:52:34.652Z,30.17
2019-05-19T18:57:39.974Z,28.60
2019-05-19T19:02:53.503Z,30.48
2019-05-19T19:07:59.247Z,32.75
2019-05-19T19:13:11.009Z,30.50
2019-05-19T19:18:16.878Z,30.20
2019-05-19T19:29:09.565Z,30.90
2019-05-19T19:34:17.634Z,28.98
2019-05-19T19:39:23.531Z,31.33
2019-05-19T19:44:29.631Z,28.60
2019-05-19T19:49:48.407Z,28.07
2019-05-19T19:55:49.175Z,26.62
2019-05-19T20:00:43.800Z,29.87
2019-05-19T20:05:50.440Z,31.60
2019-05-19T20:10:58.316Z,30.90
2019-05-19T20:16:06.711Z,29.65
2019-05-19T20:21:14.900Z,28.92
2019-05-19T20:26:20.561Z,29.97
2019-05-19T20:31:25.685Z,29.70
2019-05-19T20:36:32.460Z,30.97
2019-05-19T20:41:54.006Z,28.90
2019-05-19T20:46:59.650Z,29.53
2019-05-19T20:52:07.106Z,32.90
2019-05-19T20:57:12.936Z,37.50
2019-05-19T21:02:18.881Z,35.87
2019-05-19T21:07:29.742Z,29.40
2019-05-19T21:12:36.077Z,28.67
2019-05-19T21:17:42.285Z,37.88
2019-05-19T21:22:47.927Z,34.38
2019-05-19T21:27:54.307Z,30.40
2019-05-19T21:33:03.390Z,32.48
2019-05-19T21:38:12.048Z,33.30
2019-05-19T21:43:18.446Z,34.60
2019-05-19T21:48:35.099Z,33.25
2019-05-19T21:53:41.223Z,30.90
2019-05-19T21:58:54.514Z,33.20
2019-05-19T22:04:03.881Z,32.58
2019-05-19T22:09:13.193Z,35.15
2019-05-19T22:14:18.618Z,35.75
2019-05-19T22:19:27.978Z,32.08
2019-05-19T22:24:35.281Z,32.73
2019-05-19T22:29:40.464Z,31.73
2019-05-19T22:34:45.521Z,33.17
2019-05-19T22:39:51.700Z,34.30
2019-05-19T22:44:58.140Z,34.23
2019-05-19T22:50:06.947Z,39.63
2019-05-19T22:55:13.535Z,35.67
2019-05-19T23:00:21.537Z,33.65
2019-05-19T23:05:26.577Z,34.03
2019-05-19T23:10:31.941Z,35.45
2019-05-19T23:15:40.743Z,34.67
2019-05-19T23:21:15.678Z,34.92
2019-05-19T23:26:21.612Z,35.38
2019-05-19T23:31:50.848Z,34.90
2019-05-19T23:36:55.937Z,35.00
2019-05-19T23:42:01.022Z,35.53
2019-05-19T23:47:06.606Z,35.28
2019-05-19T23:52:12.169Z,35.15
2019-05-19T23:57:17.649Z,37.53
